Time;durP1;ratioP1;P1;durP2;ratioP2;P2;SDS_P1;SDS_P2;PMS_P1;PMS_P2;Temp;Humidity;BMP_temperature;BMP_pressure;BME280_temperature;BME280_humidity;BME280_pressure;Samples;Min_cycle;Max_cycle;Signal;HPM_P1;HPM_P2
2021/01/22 00:00:49;;;;;;;1.20;1.10;;;12.00;93.30;;;;;;5085439;28;21171;-53
2021/01/22 00:03:16;;;;;;;0.90;0.90;;;12.00;93.10;;;;;;5091750;28;20683;-53
2021/01/22 00:05:43;;;;;;;1.43;1.13;;;12.00;92.90;;;;;;5091871;28;20959;-53
2021/01/22 00:08:09;;;;;;;1.40;1.30;;;12.00;92.80;;;;;;5093623;28;21157;-52
2021/01/22 00:10:36;;;;;;;1.03;0.70;;;12.00;92.60;;;;;;5093692;28;20628;-53
2021/01/22 00:13:03;;;;;;;1.70;1.23;;;12.00;92.60;;;;;;5087411;28;20649;-52
2021/01/22 00:15:30;;;;;;;1.90;1.00;;;12.00;92.70;;;;;;5092945;28;20683;-51
2021/01/22 00:17:58;;;;;;;1.30;1.20;;;12.10;92.40;;;;;;5092676;28;20683;-52
2021/01/22 00:20:24;;;;;;;1.00;0.80;;;12.10;92.30;;;;;;5093426;28;20655;-52
2021/01/22 00:22:51;;;;;;;1.57;1.20;;;12.10;92.10;;;;;;5091622;28;20651;-52
2021/01/22 00:25:18;;;;;;;4.10;2.13;;;12.10;92.20;;;;;;5091792;28;20675;-51
2021/01/22 00:27:45;;;;;;;1.60;1.20;;;12.20;92.10;;;;;;5088628;28;20628;-50
2021/01/22 00:30:13;;;;;;;1.07;0.97;;;12.20;91.90;;;;;;5083759;28;20655;-50
2021/01/22 00:32:39;;;;;;;1.53;1.30;;;12.20;91.70;;;;;;5089596;28;21156;-50
2021/01/22 00:35:08;;;;;;;1.93;1.07;;;12.30;91.70;;;;;;5091118;28;20692;-51
2021/01/22 00:37:34;;;;;;;2.60;1.90;;;12.30;91.60;;;;;;5091000;28;20691;-51
2021/01/22 00:40:01;;;;;;;1.23;0.87;;;12.30;91.70;;;;;;5091584;28;20651;-50
2021/01/22 00:42:28;;;;;;;2.03;1.20;;;12.30;91.60;;;;;;5091729;28;20674;-53
2021/01/22 00:44:55;;;;;;;2.60;1.50;;;12.30;91.60;;;;;;5074872;28;20649;-51
2021/01/22 00:47:21;;;;;;;0.70;0.70;;;12.30;91.60;;;;;;5071216;28;21232;-50
2021/01/22 00:49:48;;;;;;;1.50;1.07;;;12.30;91.50;;;;;;5071420;28;20686;-51
2021/01/22 00:52:16;;;;;;;1.13;0.90;;;12.30;91.50;;;;;;5081817;28;20664;-51
2021/01/22 00:54:42;;;;;;;2.00;1.63;;;12.30;91.40;;;;;;5091511;28;21231;-51
2021/01/22 00:57:09;;;;;;;2.80;1.30;;;12.30;91.30;;;;;;5091584;28;20675;-51
2021/01/22 00:59:36;;;;;;;4.13;1.70;;;12.30;91.40;;;;;;5072909;28;20714;-51
2021/01/22 01:02:03;;;;;;;2.20;1.20;;;12.30;91.30;;;;;;5071437;28;20660;-51
2021/01/22 01:04:29;;;;;;;1.50;1.20;;;12.30;91.30;;;;;;5070933;28;20656;-51
2021/01/22 01:06:56;;;;;;;1.30;1.20;;;12.30;91.30;;;;;;5071026;28;20644;-51
2021/01/22 01:09:24;;;;;;;2.83;1.37;;;12.20;91.50;;;;;;5079099;28;20627;-51
2021/01/22 01:11:50;;;;;;;1.50;1.10;;;12.20;91.40;;;;;;5089919;28;20657;-51
2021/01/22 01:14:17;;;;;;;1.30;1.20;;;12.20;91.50;;;;;;5091359;28;20746;-51
2021/01/22 01:16:44;;;;;;;1.90;1.80;;;12.20;91.50;;;;;;5091087;28;20987;-50
2021/01/22 01:19:11;;;;;;;0.90;0.90;;;12.20;91.40;;;;;;5091159;28;20700;-50
2021/01/22 01:21:37;;;;;;;2.80;1.30;;;12.20;91.40;;;;;;5090138;28;20644;-51
2021/01/22 01:24:05;;;;;;;1.50;1.40;;;12.20;91.40;;;;;;5092150;28;21134;-53
2021/01/22 01:26:33;;;;;;;1.37;0.93;;;12.20;91.30;;;;;;5091275;28;20624;-51
2021/01/22 01:28:59;;;;;;;1.00;0.90;;;12.20;91.60;;;;;;5079247;28;21261;-51
2021/01/22 01:31:26;;;;;;;0.90;0.90;;;12.20;91.60;;;;;;5071381;28;20660;-51
2021/01/22 01:33:53;;;;;;;1.20;0.80;;;12.10;92.00;;;;;;5070801;28;20662;-51
2021/01/22 01:36:19;;;;;;;1.10;0.80;;;12.00;91.80;;;;;;5070930;28;21148;-50
2021/01/22 01:38:46;;;;;;;1.40;1.30;;;12.00;92.00;;;;;;5074228;28;20715;-51
2021/01/22 01:41:13;;;;;;;1.07;0.97;;;11.90;92.20;;;;;;5091215;28;20647;-52
2021/01/22 01:43:41;;;;;;;1.33;1.20;;;11.80;92.90;;;;;;5089746;28;20658;-51
2021/01/22 01:46:08;;;;;;;1.83;1.10;;;11.70;93.00;;;;;;5074805;28;20664;-51
2021/01/22 01:48:34;;;;;;;1.10;0.90;;;11.60;93.10;;;;;;5069187;28;20617;-51
2021/01/22 01:51:01;;;;;;;2.50;2.40;;;11.60;93.40;;;;;;5070789;28;20682;-52
2021/01/22 01:53:28;;;;;;;2.10;1.13;;;11.60;93.00;;;;;;5070072;28;20656;-52
2021/01/22 01:55:55;;;;;;;0.93;0.83;;;11.70;92.90;;;;;;5070046;28;20684;-52
2021/01/22 01:58:21;;;;;;;1.27;0.60;;;11.70;92.50;;;;;;5071279;28;20685;-51
2021/01/22 02:00:49;;;;;;;1.00;0.80;;;11.70;92.40;;;;;;5071260;28;20671;-51
2021/01/22 02:03:16;;;;;;;1.30;1.10;;;11.80;92.10;;;;;;5070047;28;20621;-51
2021/01/22 02:05:43;;;;;;;2.03;1.63;;;11.80;92.00;;;;;;5069968;28;21231;-52
2021/01/22 02:08:10;;;;;;;1.57;1.27;;;11.90;91.80;;;;;;5070317;28;20613;-52
2021/01/22 02:10:37;;;;;;;2.60;1.10;;;11.80;91.90;;;;;;5069326;28;20678;-51
2021/01/22 02:13:03;;;;;;;2.20;0.87;;;11.80;92.00;;;;;;5073028;28;21170;-52
2021/01/22 02:15:30;;;;;;;1.10;0.70;;;11.80;92.00;;;;;;5070160;28;21001;-52
2021/01/22 02:17:58;;;;;;;0.87;0.57;;;11.80;92.10;;;;;;5069726;28;21074;-52
2021/01/22 02:20:45;;;;;;;1.80;0.73;;;11.80;92.10;;;;;;5069570;28;20632;-52
2021/01/22 02:23:11;;;;;;;1.20;0.70;;;11.70;92.60;;;;;;5059082;28;20683;-51
2021/01/22 02:25:40;;;;;;;1.20;0.67;;;11.60;92.60;;;;;;5070189;28;20683;-50
2021/01/22 02:28:09;;;;;;;0.90;0.87;;;11.60;92.80;;;;;;5071203;28;20685;-51
2021/01/22 02:30:36;;;;;;;0.80;0.60;;;11.70;92.80;;;;;;5081062;28;20624;-51
2021/01/22 02:33:03;;;;;;;1.93;0.73;;;11.70;92.70;;;;;;5089842;28;20900;-51
2021/01/22 02:35:30;;;;;;;1.47;0.50;;;11.70;92.60;;;;;;5089857;28;20684;-50
2021/01/22 02:37:57;;;;;;;1.57;0.70;;;11.70;92.70;;;;;;5089546;28;20759;-51
2021/01/22 02:40:24;;;;;;;1.77;1.03;;;11.70;92.60;;;;;;5088452;28;21183;-51
2021/01/22 02:42:50;;;;;;;1.03;0.70;;;11.70;93.00;;;;;;5081692;28;20628;-51
2021/01/22 02:45:18;;;;;;;1.67;1.23;;;11.70;92.80;;;;;;5069107;28;20684;-51
2021/01/22 02:47:45;;;;;;;0.57;0.47;;;11.70;92.90;;;;;;5069079;28;20657;-50
2021/01/22 02:50:16;;;;;;;1.07;0.97;;;11.70;92.80;;;;;;5069563;28;20664;-50
2021/01/22 02:52:42;;;;;;;0.70;0.60;;;11.80;93.00;;;;;;5069716;28;20655;-52
2021/01/22 02:55:10;;;;;;;1.47;1.37;;;11.70;92.90;;;;;;5069093;28;21297;-51
2021/01/22 02:57:37;;;;;;;3.80;1.93;;;11.70;93.00;;;;;;5068882;28;20661;-51
2021/01/22 03:00:08;;;;;;;1.83;0.67;;;11.70;93.10;;;;;;5086509;28;20696;-52
2021/01/22 03:02:38;;;;;;;1.90;1.33;;;11.70;93.10;;;;;;5089322;28;20656;-52
2021/01/22 03:05:06;;;;;;;0.80;0.80;;;11.80;93.10;;;;;;5089439;28;20651;-52
2021/01/22 03:07:35;;;;;;;2.53;1.07;;;11.80;93.00;;;;;;5089266;28;20616;-51
2021/01/22 03:10:02;;;;;;;3.50;1.00;;;11.90;92.90;;;;;;5089854;28;21195;-52
2021/01/22 03:12:29;;;;;;;0.97;0.63;;;11.80;92.70;;;;;;5089556;28;20657;-51
2021/01/22 03:14:56;;;;;;;1.70;1.60;;;11.80;92.70;;;;;;5089133;28;20659;-51
2021/01/22 03:17:22;;;;;;;1.03;0.83;;;11.90;92.70;;;;;;5089726;28;21280;-52
2021/01/22 03:19:51;;;;;;;2.50;0.73;;;11.90;92.50;;;;;;5086829;28;20649;-51
2021/01/22 03:22:17;;;;;;;1.20;0.70;;;11.90;92.40;;;;;;5070433;28;20657;-50
2021/01/22 03:24:44;;;;;;;3.83;0.73;;;11.90;92.30;;;;;;5072899;28;20652;-51
2021/01/22 03:27:11;;;;;;;1.43;1.10;;;11.90;92.10;;;;;;5079218;28;20617;-50
2021/01/22 03:29:38;;;;;;;1.03;0.93;;;12.00;92.20;;;;;;5073140;28;20866;-50
2021/01/22 03:32:05;;;;;;;2.67;1.53;;;11.90;92.10;;;;;;5073433;28;20743;-50
2021/01/22 03:34:32;;;;;;;3.93;1.40;;;11.90;92.00;;;;;;5072461;28;21081;-50
2021/01/22 03:37:00;;;;;;;0.70;0.70;;;11.90;92.00;;;;;;5072864;28;20667;-51
2021/01/22 03:39:27;;;;;;;2.63;1.30;;;12.00;91.90;;;;;;5080412;28;20683;-51
2021/01/22 03:41:54;;;;;;;1.63;0.83;;;12.00;92.00;;;;;;5089713;28;20660;-50
2021/01/22 03:44:21;;;;;;;1.10;1.00;;;12.00;91.70;;;;;;5072293;28;21063;-50
2021/01/22 03:46:47;;;;;;;2.60;1.80;;;12.00;91.90;;;;;;5072457;28;20657;-50
2021/01/22 03:49:14;;;;;;;2.13;1.60;;;12.00;91.60;;;;;;5078144;28;20655;-49
2021/01/22 03:51:41;;;;;;;3.37;0.90;;;12.10;91.40;;;;;;5091970;28;20731;-51
2021/01/22 03:54:09;;;;;;;1.77;1.50;;;12.10;91.30;;;;;;5091510;28;20686;-51
2021/01/22 03:56:35;;;;;;;3.33;1.37;;;12.10;91.20;;;;;;5083028;28;20660;-51
2021/01/22 03:59:02;;;;;;;1.93;1.23;;;12.10;91.20;;;;;;5072319;28;20693;-51
2021/01/22 04:01:30;;;;;;;3.40;1.57;;;12.20;91.10;;;;;;5091055;28;20655;-51
2021/01/22 04:03:57;;;;;;;6.10;1.73;;;12.20;91.00;;;;;;5090764;28;20668;-51
2021/01/22 04:06:23;;;;;;;1.53;1.03;;;12.20;91.10;;;;;;5092876;28;20620;-51
2021/01/22 04:08:51;;;;;;;2.17;1.20;;;12.20;91.00;;;;;;5091949;28;20623;-51
2021/01/22 04:11:18;;;;;;;2.60;1.07;;;12.20;91.00;;;;;;5092431;28;20815;-50
2021/01/22 04:13:45;;;;;;;1.90;1.20;;;12.20;91.20;;;;;;5091029;28;20652;-50
2021/01/22 04:16:12;;;;;;;0.93;0.70;;;12.20;91.20;;;;;;5092450;28;20743;-51
2021/01/22 04:18:39;;;;;;;0.93;0.90;;;12.20;91.30;;;;;;5091871;28;20737;-51
2021/01/22 04:21:06;;;;;;;3.63;1.70;;;12.10;91.20;;;;;;5091804;28;21061;-51
2021/01/22 04:23:32;;;;;;;3.77;1.90;;;12.20;91.20;;;;;;5092128;28;20648;-52
2021/01/22 04:25:59;;;;;;;2.90;1.20;;;12.20;91.00;;;;;;5091645;28;20690;-52
2021/01/22 04:28:27;;;;;;;4.17;1.90;;;12.20;90.90;;;;;;5079775;28;20704;-52
2021/01/22 04:30:53;;;;;;;4.83;2.13;;;12.20;90.80;;;;;;5078059;28;20660;-52
2021/01/22 04:33:20;;;;;;;4.73;1.57;;;12.30;90.70;;;;;;5091111;28;20638;-53
2021/01/22 04:35:47;;;;;;;2.20;1.07;;;12.30;91.10;;;;;;5091666;28;20655;-52
2021/01/22 04:38:14;;;;;;;4.50;2.40;;;12.30;90.60;;;;;;5091500;28;20766;-52
2021/01/22 04:40:40;;;;;;;2.47;1.40;;;12.30;90.40;;;;;;5091045;28;20779;-52
2021/01/22 04:43:07;;;;;;;4.23;1.80;;;12.20;90.30;;;;;;5089832;28;20628;-52
2021/01/22 04:45:35;;;;;;;2.40;1.27;;;12.30;90.50;;;;;;5090036;28;20652;-52
2021/01/22 04:48:02;;;;;;;2.53;1.00;;;12.20;90.50;;;;;;5091855;28;20628;-52
2021/01/22 04:50:28;;;;;;;1.40;1.30;;;12.20;90.40;;;;;;5091882;28;20656;-52
2021/01/22 04:52:57;;;;;;;1.23;1.00;;;12.30;90.20;;;;;;5091474;28;20623;-52
2021/01/22 04:55:26;;;;;;;5.40;2.77;;;12.30;90.40;;;;;;5093662;28;20648;-52
2021/01/22 04:57:52;;;;;;;4.73;1.23;;;12.30;90.40;;;;;;5091697;28;20685;-53
2021/01/22 05:00:20;;;;;;;6.97;1.77;;;12.30;90.20;;;;;;5073522;28;20695;-53
2021/01/22 05:02:49;;;;;;;4.17;1.70;;;12.30;90.30;;;;;;5087938;28;20662;-50
2021/01/22 05:05:16;;;;;;;4.00;1.57;;;12.30;90.50;;;;;;5073551;28;21170;-51
2021/01/22 05:07:42;;;;;;;6.33;1.83;;;12.30;90.20;;;;;;5085640;28;20699;-52
2021/01/22 05:10:10;;;;;;;5.80;1.30;;;12.20;90.40;;;;;;5090671;28;20660;-53
2021/01/22 05:12:36;;;;;;;2.57;1.80;;;12.20;90.20;;;;;;5091596;28;20655;-51
2021/01/22 05:15:17;;;;;;;4.47;1.93;;;12.20;90.20;;;;;;5090928;28;20683;-51
2021/01/22 05:17:58;;;;;;;3.30;1.47;;;12.20;90.30;;;;;;5090893;28;21055;-52
2021/01/22 05:20:31;;;;;;;4.53;1.77;;;12.30;89.90;;;;;;5091177;28;20748;-52
2021/01/22 05:22:58;;;;;;;3.70;1.53;;;12.30;90.00;;;;;;5091392;28;20635;-53
2021/01/22 05:25:25;;;;;;;3.03;1.90;;;12.30;90.20;;;;;;5091239;28;20691;-50
2021/01/22 05:27:52;;;;;;;7.00;2.77;;;12.20;90.70;;;;;;5091013;28;20967;-50
2021/01/22 05:30:20;;;;;;;5.80;2.17;;;12.20;90.20;;;;;;5090946;28;20640;-49
2021/01/22 05:32:46;;;;;;;5.63;2.10;;;12.30;90.20;;;;;;5090834;28;20652;-51
2021/01/22 05:35:21;;;;;;;5.63;1.33;;;12.30;90.20;;;;;;5090480;28;20696;-51
2021/01/22 05:37:51;;;;;;;2.87;1.30;;;12.20;90.40;;;;;;5089971;28;21206;-50
2021/01/22 05:40:18;;;;;;;2.17;1.50;;;12.20;90.50;;;;;;5090691;28;20713;-50
2021/01/22 05:42:46;;;;;;;3.93;1.33;;;12.10;90.70;;;;;;5090946;28;21269;-50
2021/01/22 05:45:14;;;;;;;4.67;2.40;;;12.10;90.70;;;;;;5089783;28;20692;-50
2021/01/22 05:47:40;;;;;;;6.20;2.10;;;12.10;90.70;;;;;;5090975;28;20655;-52
2021/01/22 05:50:08;;;;;;;2.00;1.63;;;12.10;90.70;;;;;;5090684;28;20674;-51
2021/01/22 05:52:35;;;;;;;1.60;1.47;;;12.10;90.70;;;;;;5091237;28;20692;-52
2021/01/22 05:55:21;;;;;;;4.10;1.57;;;12.10;90.80;;;;;;5088308;28;20708;-51
2021/01/22 05:57:48;;;;;;;1.80;1.23;;;12.10;90.50;;;;;;5090767;28;20648;-52
2021/01/22 06:00:15;;;;;;;2.47;1.60;;;12.10;90.90;;;;;;5090027;28;20701;-53
2021/01/22 06:02:42;;;;;;;3.20;1.80;;;12.10;90.90;;;;;;5085496;28;20613;-52
2021/01/22 06:05:11;;;;;;;5.97;1.50;;;12.00;91.00;;;;;;5090283;28;20786;-52
2021/01/22 06:07:39;;;;;;;3.53;1.43;;;12.10;91.00;;;;;;5090397;28;20621;-51
2021/01/22 06:10:13;;;;;;;3.03;1.20;;;12.10;91.00;;;;;;5081724;28;20630;-52
2021/01/22 06:12:41;;;;;;;3.70;1.10;;;12.10;91.00;;;;;;5070175;28;20654;-52
2021/01/22 06:15:09;;;;;;;1.53;0.80;;;12.10;90.90;;;;;;5083895;28;20692;-52
2021/01/22 06:17:36;;;;;;;1.97;1.27;;;12.10;90.70;;;;;;5090455;28;20620;-51
2021/01/22 06:20:03;;;;;;;1.33;0.80;;;12.20;90.90;;;;;;5090063;28;21230;-52
2021/01/22 06:22:30;;;;;;;2.43;1.40;;;12.20;90.60;;;;;;5090051;28;20632;-51
2021/01/22 06:24:58;;;;;;;5.63;1.47;;;12.20;90.60;;;;;;5088459;28;20698;-50
2021/01/22 06:27:24;;;;;;;2.07;1.10;;;12.10;90.50;;;;;;5089688;28;20668;-51
2021/01/22 06:29:51;;;;;;;1.57;1.00;;;12.10;90.70;;;;;;5090207;28;20630;-51
2021/01/22 06:32:18;;;;;;;1.37;1.13;;;12.10;91.10;;;;;;5090028;28;20663;-50
2021/01/22 06:34:45;;;;;;;1.70;0.90;;;12.10;91.00;;;;;;5089646;28;20722;-51
2021/01/22 06:37:11;;;;;;;3.37;1.37;;;12.10;91.00;;;;;;5090137;28;20623;-51
2021/01/22 06:39:38;;;;;;;3.90;1.10;;;12.00;91.30;;;;;;5080198;28;20700;-50
2021/01/22 06:42:07;;;;;;;1.97;1.20;;;12.00;91.50;;;;;;5069973;28;20617;-52
2021/01/22 06:44:33;;;;;;;3.63;1.30;;;12.00;91.50;;;;;;5069677;28;20711;-52
2021/01/22 06:47:10;;;;;;;2.43;1.80;;;12.00;91.70;;;;;;5069761;28;20657;-51
2021/01/22 06:49:37;;;;;;;4.13;1.60;;;12.00;91.70;;;;;;5069205;28;20663;-51
2021/01/22 06:52:10;;;;;;;2.80;1.60;;;12.00;91.80;;;;;;5069965;28;20621;-52
2021/01/22 06:55:01;;;;;;;1.43;1.27;;;12.00;91.80;;;;;;5083968;28;20703;-51
2021/01/22 06:57:29;;;;;;;5.30;1.77;;;12.00;91.90;;;;;;5091218;28;20625;-52
2021/01/22 06:59:57;;;;;;;3.43;2.13;;;12.00;92.00;;;;;;5094034;28;20680;-50
2021/01/22 07:02:38;;;;;;;2.50;1.27;;;12.00;92.00;;;;;;5093908;28;20763;-52
2021/01/22 07:05:44;;;;;;;2.60;1.43;;;12.00;91.90;;;;;;5094036;28;20718;-51
2021/01/22 07:08:13;;;;;;;2.13;1.57;;;11.90;92.10;;;;;;5092088;28;20673;-52
2021/01/22 07:11:06;;;;;;;3.30;2.20;;;11.90;92.40;;;;;;5093406;28;20638;-53
2021/01/22 07:13:38;;;;;;;4.23;2.60;;;12.00;92.20;;;;;;5093749;28;20681;-52
2021/01/22 07:16:05;;;;;;;3.00;1.30;;;11.90;92.30;;;;;;5093240;28;20631;-52
2021/01/22 07:18:44;;;;;;;3.93;1.23;;;11.90;92.70;;;;;;5093115;28;20718;-52
2021/01/22 07:21:37;;;;;;;3.03;1.80;;;11.90;93.10;;;;;;5093331;28;20703;-51
2021/01/22 07:24:05;;;;;;;3.53;2.10;;;11.80;93.50;;;;;;5092502;28;20709;-52
2021/01/22 07:26:34;;;;;;;1.97;1.33;;;11.80;93.70;;;;;;5092670;28;20695;-52
2021/01/22 07:29:13;;;;;;;4.53;2.37;;;11.70;93.70;;;;;;5092994;28;21147;-52
2021/01/22 07:31:53;;;;;;;3.80;1.70;;;11.70;93.90;;;;;;5092936;28;20615;-51
2021/01/22 07:34:56;;;;;;;2.67;1.50;;;11.70;94.20;;;;;;5092582;28;20701;-52
2021/01/22 07:37:24;;;;;;;2.40;1.07;;;11.60;94.70;;;;;;5092635;28;21197;-51
2021/01/22 07:39:55;;;;;;;2.60;1.33;;;11.60;95.30;;;;;;5092668;28;20698;-52
2021/01/22 07:42:22;;;;;;;2.20;1.70;;;11.50;95.50;;;;;;5092215;28;20904;-52
2021/01/22 07:44:51;;;;;;;4.43;1.40;;;11.40;95.50;;;;;;5092556;28;20720;-53
2021/01/22 07:47:27;;;;;;;1.37;1.27;;;11.30;95.60;;;;;;5092499;28;20890;-52
2021/01/22 07:49:55;;;;;;;2.63;1.00;;;11.30;95.80;;;;;;5092637;28;20648;-52
2021/01/22 07:52:22;;;;;;;2.20;1.60;;;11.20;96.10;;;;;;5092464;28;20663;-52
2021/01/22 07:54:49;;;;;;;1.13;0.77;;;11.10;95.50;;;;;;5092211;28;20656;-51
2021/01/22 07:57:17;;;;;;;2.00;0.50;;;11.00;95.20;;;;;;5092496;28;20663;-52
2021/01/22 07:59:44;;;;;;;1.53;0.50;;;10.90;94.60;;;;;;5092715;28;20688;-51
2021/01/22 08:02:15;;;;;;;0.50;0.50;;;10.70;94.10;;;;;;5092460;28;20690;-51
2021/01/22 08:04:42;;;;;;;2.20;0.57;;;10.60;94.10;;;;;;5092323;28;20694;-52
2021/01/22 08:07:09;;;;;;;0.70;0.40;;;10.50;93.90;;;;;;5092123;28;20648;-51
2021/01/22 08:09:36;;;;;;;0.73;0.47;;;10.50;93.90;;;;;;5089333;28;20644;-52
2021/01/22 08:12:07;;;;;;;1.13;0.80;;;10.40;93.90;;;;;;5080658;28;21148;-52
2021/01/22 08:14:34;;;;;;;2.50;1.10;;;10.30;94.10;;;;;;5092901;28;20682;-53
2021/01/22 08:17:02;;;;;;;11.17;2.20;;;10.30;93.90;;;;;;5074274;28;20619;-52
2021/01/22 08:19:30;;;;;;;2.10;0.70;;;10.30;94.30;;;;;;5074563;28;20684;-52
2021/01/22 08:21:57;;;;;;;2.00;1.30;;;10.20;94.30;;;;;;5092429;28;21221;-52
2021/01/22 08:24:24;;;;;;;1.70;1.20;;;10.30;94.40;;;;;;5092180;28;20695;-52
2021/01/22 08:26:58;;;;;;;3.73;1.73;;;10.30;94.50;;;;;;5092480;28;20656;-53
2021/01/22 08:29:28;;;;;;;4.13;1.40;;;10.30;94.50;;;;;;5091231;28;20979;-53
2021/01/22 08:31:55;;;;;;;5.30;1.77;;;10.30;94.60;;;;;;5092126;28;20709;-52
2021/01/22 08:34:23;;;;;;;3.83;1.27;;;10.30;94.70;;;;;;5074171;28;20652;-53
2021/01/22 08:36:51;;;;;;;1.20;1.03;;;10.30;94.70;;;;;;5092049;28;20999;-52
2021/01/22 08:39:18;;;;;;;0.90;0.90;;;10.20;93.80;;;;;;5091813;28;21007;-52
2021/01/22 08:41:45;;;;;;;1.70;1.20;;;10.20;93.50;;;;;;5092755;28;20647;-51
2021/01/22 08:44:12;;;;;;;4.10;1.03;;;10.10;93.30;;;;;;5091260;28;20880;-53
2021/01/22 08:46:48;;;;;;;1.17;0.90;;;10.10;93.30;;;;;;5092328;28;20673;-53
2021/01/22 08:49:15;;;;;;;4.33;1.27;;;10.10;93.40;;;;;;5091906;28;21225;-51
2021/01/22 08:51:42;;;;;;;3.63;2.17;;;10.10;93.50;;;;;;5091685;28;20652;-51
2021/01/22 08:54:10;;;;;;;4.97;2.40;;;10.00;93.60;;;;;;5091568;28;20679;-52
2021/01/22 08:56:37;;;;;;;5.30;2.30;;;10.00;93.60;;;;;;5091673;28;21229;-54
2021/01/22 08:59:11;;;;;;;3.07;2.10;;;10.00;93.50;;;;;;5091619;28;21068;-51
2021/01/22 09:01:51;;;;;;;2.60;1.10;;;10.00;93.70;;;;;;5091467;28;20663;-51
2021/01/22 09:04:20;;;;;;;2.70;1.43;;;10.00;93.70;;;;;;5091429;28;20690;-52
2021/01/22 09:06:47;;;;;;;1.00;0.70;;;10.00;93.70;;;;;;5091634;28;20616;-51
2021/01/22 09:09:15;;;;;;;3.80;1.33;;;10.00;93.70;;;;;;5091682;28;20639;-51
2021/01/22 09:11:42;;;;;;;1.00;0.90;;;10.00;93.50;;;;;;5091359;28;20643;-51
2021/01/22 09:14:10;;;;;;;0.77;0.57;;;9.90;94.30;;;;;;5091301;28;21176;-51
2021/01/22 09:16:47;;;;;;;2.30;1.60;;;9.70;93.40;;;;;;5091449;28;20654;-52
2021/01/22 09:19:13;;;;;;;2.37;1.20;;;9.70;93.70;;;;;;5090963;28;20655;-52
2021/01/22 09:21:53;;;;;;;2.37;1.27;;;9.60;93.90;;;;;;5090813;28;20887;-51
2021/01/22 09:24:20;;;;;;;2.43;1.07;;;9.60;93.50;;;;;;5090995;28;20960;-53
2021/01/22 09:26:47;;;;;;;1.20;0.90;;;9.40;93.40;;;;;;5091160;28;20663;-52
2021/01/22 09:29:14;;;;;;;1.57;0.80;;;9.30;93.90;;;;;;5091222;28;20667;-52
2021/01/22 09:31:41;;;;;;;1.00;0.90;;;9.30;93.70;;;;;;5091341;28;20723;-52
2021/01/22 09:34:08;;;;;;;0.83;0.60;;;9.30;93.60;;;;;;5090529;28;20659;-52
2021/01/22 09:36:34;;;;;;;1.20;0.70;;;9.30;93.30;;;;;;5091333;28;20748;-52
2021/01/22 09:39:01;;;;;;;0.50;0.47;;;9.30;93.20;;;;;;5090270;28;20652;-52
2021/01/22 09:41:29;;;;;;;1.67;0.60;;;9.30;93.20;;;;;;5091233;28;21184;-50
2021/01/22 09:43:56;;;;;;;0.70;0.60;;;9.20;92.70;;;;;;5090753;28;20632;-50
2021/01/22 09:46:23;;;;;;;0.77;0.60;;;9.30;92.80;;;;;;5091494;28;20649;-51
2021/01/22 09:48:50;;;;;;;0.93;0.83;;;9.30;92.70;;;;;;5090870;28;21191;-51
2021/01/22 09:51:16;;;;;;;1.90;0.60;;;9.30;92.70;;;;;;5091319;28;20624;-51
2021/01/22 09:53:43;;;;;;;1.20;0.70;;;9.30;92.70;;;;;;5090369;28;21219;-51
2021/01/22 09:56:10;;;;;;;1.60;0.70;;;9.30;92.70;;;;;;5090699;28;20647;-52
2021/01/22 09:58:38;;;;;;;1.50;0.93;;;9.30;92.80;;;;;;5090721;28;20624;-52
2021/01/22 10:01:04;;;;;;;1.27;1.10;;;9.20;93.00;;;;;;5090590;28;20696;-51
2021/01/22 10:03:31;;;;;;;2.27;0.90;;;9.30;93.20;;;;;;5089937;28;20681;-50
2021/01/22 10:05:58;;;;;;;1.97;0.70;;;9.30;93.10;;;;;;5090454;28;21277;-52
2021/01/22 10:08:25;;;;;;;0.63;0.60;;;9.30;93.20;;;;;;5090099;28;20730;-51
2021/01/22 10:10:52;;;;;;;2.17;0.90;;;9.40;93.20;;;;;;5080525;28;20647;-50
2021/01/22 10:13:19;;;;;;;1.00;0.80;;;9.40;93.10;;;;;;5090267;28;20663;-51
2021/01/22 10:15:46;;;;;;;1.43;0.70;;;9.40;92.90;;;;;;5090274;28;20671;-51
2021/01/22 10:18:13;;;;;;;1.30;1.00;;;9.40;93.00;;;;;;5091705;28;20659;-52
2021/01/22 10:20:40;;;;;;;3.20;1.23;;;9.30;92.90;;;;;;5091231;28;21045;-52
2021/01/22 10:23:07;;;;;;;2.50;1.80;;;9.30;93.20;;;;;;5091245;28;20694;-52
2021/01/22 10:25:34;;;;;;;2.53;1.60;;;9.40;93.30;;;;;;5091266;28;20730;-52
2021/01/22 10:28:01;;;;;;;1.87;1.00;;;9.30;93.30;;;;;;5091479;28;20620;-52
2021/01/22 10:30:28;;;;;;;0.80;0.80;;;9.30;93.50;;;;;;5091379;28;20666;-55
2021/01/22 10:32:55;;;;;;;0.70;0.70;;;9.40;93.40;;;;;;5091592;28;20620;-52
2021/01/22 10:35:22;;;;;;;2.63;1.20;;;9.40;93.40;;;;;;5091846;28;20695;-52
2021/01/22 10:37:49;;;;;;;2.40;0.90;;;9.40;93.60;;;;;;5091518;28;20651;-51
2021/01/22 10:40:16;;;;;;;1.27;1.10;;;9.40;93.70;;;;;;5091010;28;20657;-52
2021/01/22 10:42:43;;;;;;;1.70;0.97;;;9.40;93.90;;;;;;5090983;28;21043;-53
2021/01/22 10:45:11;;;;;;;1.00;0.80;;;9.40;93.70;;;;;;5091692;28;20699;-51
2021/01/22 10:47:38;;;;;;;0.70;0.40;;;9.50;93.70;;;;;;5071834;28;20628;-52
2021/01/22 10:50:07;;;;;;;1.13;0.83;;;9.50;93.50;;;;;;5091203;28;20629;-52
2021/01/22 10:52:34;;;;;;;0.70;0.67;;;9.60;93.50;;;;;;5091341;28;20675;-52
2021/01/22 10:55:00;;;;;;;1.17;0.60;;;9.50;93.30;;;;;;5091332;28;21072;-52
2021/01/22 10:57:27;;;;;;;1.00;0.80;;;9.50;92.90;;;;;;5090352;28;20683;-52
2021/01/22 10:59:54;;;;;;;0.70;0.50;;;9.50;92.60;;;;;;5090948;28;21264;-53
2021/01/22 11:02:21;;;;;;;0.50;0.50;;;9.50;92.60;;;;;;5091020;28;20631;-52
2021/01/22 11:04:48;;;;;;;4.93;1.07;;;9.50;92.40;;;;;;5091308;28;20772;-52
2021/01/22 11:07:15;;;;;;;1.00;0.87;;;9.50;92.30;;;;;;5090958;28;20632;-52
2021/01/22 11:09:42;;;;;;;1.57;0.70;;;9.50;92.30;;;;;;5091418;28;21002;-53
2021/01/22 11:12:10;;;;;;;0.80;0.70;;;9.50;92.20;;;;;;5091103;28;20724;-53
2021/01/22 11:14:36;;;;;;;0.50;0.40;;;9.50;92.20;;;;;;5091302;28;21015;-52
2021/01/22 11:17:03;;;;;;;1.07;0.50;;;9.60;91.90;;;;;;5091532;28;20624;-53
2021/01/22 11:19:31;;;;;;;1.30;1.10;;;9.50;92.00;;;;;;5072570;28;20674;-53
2021/01/22 11:21:58;;;;;;;0.60;0.60;;;9.50;92.10;;;;;;5090788;28;20695;-54
2021/01/22 11:24:25;;;;;;;1.23;0.87;;;9.50;92.10;;;;;;5090807;28;20697;-53
2021/01/22 11:26:52;;;;;;;1.67;0.70;;;9.50;92.00;;;;;;5090520;28;20648;-53
2021/01/22 11:29:19;;;;;;;0.93;0.60;;;9.50;91.90;;;;;;5090605;28;20624;-52
2021/01/22 11:31:46;;;;;;;1.17;1.17;;;9.50;91.90;;;;;;5090620;28;20656;-53
2021/01/22 11:34:12;;;;;;;0.83;0.60;;;9.40;91.50;;;;;;5091154;28;20667;-53
2021/01/22 11:36:39;;;;;;;0.50;0.50;;;9.40;91.60;;;;;;5091484;28;20620;-52
2021/01/22 11:39:06;;;;;;;1.07;0.73;;;9.40;91.70;;;;;;5091633;28;20628;-53
2021/01/22 11:41:34;;;;;;;0.57;0.50;;;9.40;91.80;;;;;;5091250;28;20803;-53
2021/01/22 11:44:05;;;;;;;1.40;0.60;;;9.40;91.70;;;;;;5091985;28;20660;-51
2021/01/22 11:46:32;;;;;;;1.00;0.90;;;9.40;91.80;;;;;;5093909;28;20984;-50
2021/01/22 11:48:59;;;;;;;1.90;0.83;;;9.50;92.30;;;;;;5093895;28;21175;-52
2021/01/22 11:51:26;;;;;;;1.70;0.93;;;9.40;92.40;;;;;;5094037;28;20648;-53
2021/01/22 11:53:53;;;;;;;1.43;1.00;;;9.50;92.10;;;;;;5093649;28;20612;-52
2021/01/22 11:56:19;;;;;;;0.70;0.70;;;9.50;92.00;;;;;;5093060;28;20655;-52
2021/01/22 11:58:47;;;;;;;0.80;0.60;;;9.40;92.20;;;;;;5075269;28;20646;-52
2021/01/22 12:01:14;;;;;;;16.80;3.17;;;9.50;92.50;;;;;;5093512;28;20691;-51
2021/01/22 12:03:40;;;;;;;0.80;0.70;;;9.50;92.40;;;;;;5094088;28;20655;-52
2021/01/22 12:06:07;;;;;;;1.93;1.10;;;9.50;92.40;;;;;;5093704;28;21025;-52
2021/01/22 12:08:34;;;;;;;6.20;0.87;;;9.50;92.50;;;;;;5093329;28;20661;-52
2021/01/22 12:11:01;;;;;;;6.23;2.50;;;9.50;92.50;;;;;;5083221;28;20765;-52
2021/01/22 12:13:28;;;;;;;1.13;0.60;;;9.50;92.50;;;;;;5072481;28;20629;-51
2021/01/22 12:15:55;;;;;;;24.57;3.40;;;9.50;92.20;;;;;;5078724;28;20680;-52
2021/01/22 12:18:22;;;;;;;21.40;4.23;;;9.50;91.90;;;;;;5093134;28;20670;-53
2021/01/22 12:20:49;;;;;;;2.77;1.47;;;9.50;91.70;;;;;;5093196;28;20688;-53
2021/01/22 12:23:16;;;;;;;1.20;0.90;;;9.50;91.40;;;;;;5093623;28;20653;-52
2021/01/22 12:25:45;;;;;;;2.30;1.20;;;9.50;91.70;;;;;;5075191;28;20717;-52
2021/01/22 12:28:12;;;;;;;0.73;0.60;;;9.50;91.80;;;;;;5093528;28;20646;-51
2021/01/22 12:30:39;;;;;;;9.63;2.17;;;9.50;91.70;;;;;;5093462;28;21023;-52
2021/01/22 12:33:07;;;;;;;1.63;0.80;;;9.50;91.60;;;;;;5093860;28;20632;-51
2021/01/22 12:35:34;;;;;;;1.00;0.80;;;9.50;91.60;;;;;;5093375;28;20683;-52
2021/01/22 12:38:01;;;;;;;1.13;1.03;;;9.50;91.50;;;;;;5093355;28;20976;-53
2021/01/22 12:40:27;;;;;;;1.23;0.90;;;9.50;91.20;;;;;;5093356;28;20635;-51
2021/01/22 12:42:54;;;;;;;0.50;0.50;;;9.50;91.30;;;;;;5093506;28;20732;-51
2021/01/22 12:45:24;;;;;;;1.63;1.17;;;9.50;90.90;;;;;;5093962;28;20805;-52
2021/01/22 12:47:52;;;;;;;3.37;0.60;;;9.50;90.90;;;;;;5092752;28;20659;-52
2021/01/22 12:50:19;;;;;;;0.50;0.50;;;9.50;91.00;;;;;;5093347;28;20631;-51
2021/01/22 12:52:46;;;;;;;1.83;1.37;;;9.50;91.10;;;;;;5093065;28;21211;-52
2021/01/22 12:55:14;;;;;;;1.40;0.90;;;9.50;91.10;;;;;;5092723;28;20656;-51